createdAt,value
2022-10-13T00:01:32.943Z,31.70
2022-10-13T00:04:02.726Z,28.88
2022-10-13T00:06:32.539Z,32.72
2022-10-13T00:09:02.623Z,28.13
2022-10-13T00:11:33.495Z,31.77
2022-10-13T00:14:05.231Z,31.38
2022-10-13T00:16:37.619Z,30.42
2022-10-13T00:19:09.758Z,29.65
2022-10-13T00:21:42.842Z,27.50
2022-10-13T00:24:14.367Z,29.88
2022-10-13T00:26:44.177Z,31.95
2022-10-13T00:29:13.896Z,27.85
2022-10-13T00:31:46.303Z,27.25
2022-10-13T00:34:16.019Z,31.95
2022-10-13T00:36:45.748Z,33.58
2022-10-13T00:39:15.491Z,32.80
2022-10-13T00:41:45.270Z,37.05
2022-10-13T00:44:44.924Z,33.70
2022-10-13T00:47:17.273Z,37.97
2022-10-13T00:49:47.463Z,34.10
2022-10-13T00:52:19.808Z,34.58
2022-10-13T00:54:51.143Z,35.95
2022-10-13T00:57:22.982Z,39.25
2022-10-13T00:59:53.533Z,39.03
2022-10-13T01:02:30.340Z,35.13
2022-10-13T01:05:01.921Z,33.42
2022-10-13T01:07:32.409Z,34.10
2022-10-13T01:10:02.807Z,34.50
2022-10-13T01:12:47.028Z,35.05
2022-10-13T01:15:24.892Z,34.72
2022-10-13T01:18:05.129Z,36.33
2022-10-13T01:20:55.585Z,39.45
2022-10-13T01:24:00.063Z,39.78
2022-10-13T01:27:12.104Z,41.13
2022-10-13T01:30:17.592Z,33.95
2022-10-13T01:33:02.743Z,31.33
2022-10-13T01:38:10.809Z,30.73
2022-10-13T01:40:45.540Z,29.00
2022-10-13T01:43:22.150Z,38.53
2022-10-13T01:45:57.653Z,33.47
2022-10-13T01:48:31.468Z,30.45
2022-10-13T01:51:03.248Z,29.35
2022-10-13T01:53:33.416Z,27.92
2022-10-13T01:56:03.713Z,28.90
2022-10-13T01:58:36.510Z,28.40
2022-10-13T02:01:28.934Z,31.73
2022-10-13T02:04:13.038Z,30.77
2022-10-13T02:06:48.297Z,34.22
2022-10-13T02:09:25.274Z,32.25
2022-10-13T02:12:01.343Z,39.03
2022-10-13T02:14:34.893Z,35.25
2022-10-13T02:17:07.765Z,36.00
2022-10-13T02:19:41.753Z,36.80
2022-10-13T02:22:14.449Z,34.05
2022-10-13T02:24:44.599Z,41.17
2022-10-13T02:27:14.674Z,34.08
2022-10-13T02:29:55.476Z,33.90
2022-10-13T02:32:25.808Z,33.50
2022-10-13T02:34:58.177Z,35.35
2022-10-13T02:37:28.013Z,32.97
2022-10-13T02:39:57.746Z,37.15
2022-10-13T02:42:27.595Z,33.38
2022-10-13T02:44:57.326Z,36.97
2022-10-13T02:47:27.155Z,33.72
2022-10-13T02:49:59.465Z,35.08
2022-10-13T02:52:29.243Z,33.55
2022-10-13T02:54:59.062Z,33.45
2022-10-13T02:57:28.878Z,32.55
2022-10-13T02:59:58.626Z,34.28
2022-10-13T03:02:30.024Z,36.67
2022-10-13T03:05:02.351Z,32.75
2022-10-13T03:07:32.095Z,34.65
2022-10-13T03:10:01.826Z,37.55
2022-10-13T03:12:31.594Z,32.38
2022-10-13T03:15:01.333Z,34.53
2022-10-13T03:17:31.231Z,39.03
2022-10-13T03:20:03.641Z,37.25
2022-10-13T03:22:34.668Z,40.80
2022-10-13T03:25:04.393Z,41.55
2022-10-13T03:27:34.379Z,42.60
2022-10-13T03:30:04.195Z,41.60
2022-10-13T03:32:34.224Z,39.80
2022-10-13T03:35:07.588Z,43.08
2022-10-13T03:37:37.403Z,40.25
2022-10-13T03:40:08.436Z,34.75
2022-10-13T03:42:39.222Z,35.97
2022-10-13T03:45:10.721Z,40.28
2022-10-13T03:47:40.762Z,39.05
2022-10-13T03:50:13.846Z,37.38
2022-10-13T03:52:43.565Z,43.72
2022-10-13T03:55:13.366Z,37.78
2022-10-13T03:57:43.093Z,35.03
2022-10-13T04:00:14.997Z,39.03
2022-10-13T04:02:44.735Z,34.47
2022-10-13T04:05:17.213Z,35.78
2022-10-13T04:07:47.000Z,40.90
2022-10-13T04:10:16.893Z,37.95
2022-10-13T04:12:46.700Z,44.88
2022-10-13T04:15:16.517Z,43.53
2022-10-13T04:17:46.371Z,39.65
2022-10-13T04:20:18.945Z,40.97
2022-10-13T04:22:48.790Z,37.30
2022-10-13T04:25:18.672Z,41.70
2022-10-13T04:27:48.595Z,39.92
2022-10-13T04:30:18.563Z,40.30
2022-10-13T04:32:48.297Z,37.70
2022-10-13T04:35:20.654Z,37.75
2022-10-13T04:37:50.388Z,36.10
2022-10-13T04:40:20.193Z,37.67
2022-10-13T04:42:50.341Z,40.33
2022-10-13T04:45:20.887Z,37.05
2022-10-13T04:47:50.757Z,36.53
2022-10-13T04:50:23.246Z,38.50
2022-10-13T04:52:52.995Z,34.75
2022-10-13T04:55:22.730Z,34.97
2022-10-13T04:57:52.463Z,35.63
2022-10-13T05:00:22.404Z,38.35
2022-10-13T05:02:52.331Z,36.45
2022-10-13T05:05:24.661Z,36.95
2022-10-13T05:07:54.405Z,36.45
2022-10-13T05:10:24.150Z,39.97
2022-10-13T05:12:56.058Z,36.35
2022-10-13T05:15:25.854Z,33.53
2022-10-13T05:17:55.626Z,35.05
2022-10-13T05:20:28.013Z,32.40
2022-10-13T05:22:57.977Z,42.10
2022-10-13T05:25:31.541Z,32.17
2022-10-13T05:28:03.891Z,33.95
2022-10-13T05:30:33.690Z,37.10
2022-10-13T05:33:03.510Z,36.38
2022-10-13T05:35:35.839Z,32.38
2022-10-13T05:38:05.686Z,35.58
2022-10-13T05:40:35.424Z,31.05
2022-10-13T05:43:05.188Z,33.78
2022-10-13T05:45:36.011Z,30.70
2022-10-13T05:48:05.788Z,31.15
2022-10-13T05:50:38.302Z,27.13
2022-10-13T05:53:08.183Z,37.67
2022-10-13T05:55:37.948Z,27.75
2022-10-13T05:58:07.843Z,27.45
2022-10-13T06:00:37.744Z,29.25
2022-10-13T06:03:13.718Z,33.58
2022-10-13T06:05:47.837Z,26.73
2022-10-13T06:08:18.052Z,29.55
2022-10-13T06:10:48.241Z,29.95
2022-10-13T06:13:17.996Z,28.60
2022-10-13T06:15:47.766Z,27.95
2022-10-13T06:18:17.537Z,28.20
2022-10-13T06:20:49.868Z,27.98
2022-10-13T06:23:19.663Z,27.40
2022-10-13T06:25:53.304Z,27.48
2022-10-13T06:28:23.717Z,25.27
2022-10-13T06:30:57.131Z,26.98
2022-10-13T06:33:27.582Z,28.35
2022-10-13T06:36:03.224Z,30.08
2022-10-13T06:38:33.025Z,28.05
2022-10-13T06:41:03.811Z,25.08
2022-10-13T06:43:39.934Z,25.42
2022-10-13T06:46:10.882Z,27.42
2022-10-13T06:48:41.167Z,31.00
2022-10-13T06:51:15.347Z,26.77
2022-10-13T06:53:45.208Z,27.30
2022-10-13T06:56:15.082Z,26.65
2022-10-13T06:58:44.901Z,30.67
2022-10-13T07:01:15.882Z,29.00
2022-10-13T07:03:45.730Z,31.35
2022-10-13T07:06:18.091Z,27.67
2022-10-13T07:08:47.907Z,28.58
2022-10-13T07:11:18.672Z,26.27
2022-10-13T07:13:48.480Z,30.17
2022-10-13T07:16:18.757Z,30.42
2022-10-13T07:18:50.004Z,30.17
2022-10-13T07:21:22.845Z,25.75
2022-10-13T07:23:52.569Z,31.95
2022-10-13T07:26:22.599Z,33.22
2022-10-13T07:28:52.701Z,25.52
2022-10-13T07:31:23.630Z,27.33
2022-10-13T07:33:53.923Z,26.75
2022-10-13T07:36:27.474Z,29.55
2022-10-13T07:38:58.493Z,24.27
2022-10-13T07:41:28.258Z,25.77
2022-10-13T07:43:58.248Z,23.55
2022-10-13T07:46:29.801Z,30.27
2022-10-13T07:48:59.774Z,29.55
2022-10-13T07:51:32.109Z,27.67
2022-10-13T07:54:01.949Z,25.02
2022-10-13T07:56:31.671Z,25.88
2022-10-13T07:59:01.465Z,27.35
2022-10-13T08:01:31.294Z,23.48
2022-10-13T08:04:01.019Z,23.00
2022-10-13T08:06:33.421Z,27.52
2022-10-13T08:09:04.346Z,22.67
2022-10-13T08:11:34.347Z,26.95
2022-10-13T08:14:04.087Z,26.08
2022-10-13T08:16:35.108Z,26.95
2022-10-13T08:19:04.920Z,25.90
2022-10-13T08:21:57.707Z,25.58
2022-10-13T08:24:29.502Z,21.88
2022-10-13T08:26:59.653Z,21.02
2022-10-13T08:29:29.587Z,22.90
2022-10-13T08:31:59.557Z,23.75
2022-10-13T08:34:29.503Z,22.05
2022-10-13T08:37:01.875Z,20.25
2022-10-13T08:39:32.571Z,23.48
2022-10-13T08:42:03.496Z,23.65
2022-10-13T08:47:41.127Z,24.30
2022-10-13T08:50:16.384Z,28.55
2022-10-13T08:52:52.687Z,28.08
2022-10-13T08:55:33.137Z,18.17
2022-10-13T08:58:04.570Z,17.80
2022-10-13T09:00:34.388Z,22.30
2022-10-13T09:03:29.072Z,27.85
2022-10-13T09:06:06.624Z,20.10
2022-10-13T09:08:44.051Z,19.85
2022-10-13T09:11:15.390Z,19.65
2022-10-13T09:13:45.265Z,19.95
2022-10-13T09:16:15.395Z,15.93
2022-10-13T09:18:45.124Z,19.88
2022-10-13T09:21:22.098Z,16.88
2022-10-13T09:23:56.650Z,19.95
2022-10-13T09:26:27.916Z,20.95
2022-10-13T09:28:57.703Z,14.10
2022-10-13T09:31:32.164Z,15.88
2022-10-13T09:36:33.423Z,20.02
2022-10-13T09:39:17.487Z,16.60
2022-10-13T09:41:48.013Z,17.98
2022-10-13T09:44:24.268Z,11.70
2022-10-13T09:46:59.846Z,14.15
2022-10-13T09:49:39.259Z,15.52
2022-10-13T09:52:18.937Z,13.95
2022-10-13T09:54:54.024Z,13.43
2022-10-13T09:57:36.620Z,16.75
2022-10-13T10:00:16.423Z,14.45
2022-10-13T10:02:51.401Z,18.05
2022-10-13T10:05:27.821Z,16.02
2022-10-13T10:08:02.870Z,23.33
2022-10-13T10:10:38.103Z,19.38
2022-10-13T10:13:08.017Z,13.73
2022-10-13T10:15:47.630Z,16.15
2022-10-13T10:18:22.825Z,17.95
2022-10-13T10:21:10.919Z,15.80
2022-10-13T10:23:49.075Z,15.05
2022-10-13T10:26:31.597Z,15.57
2022-10-13T10:29:17.603Z,17.88
2022-10-13T10:32:02.284Z,14.98
2022-10-13T10:34:39.226Z,17.42
2022-10-13T10:37:25.200Z,15.50
2022-10-13T10:40:04.946Z,13.98
2022-10-13T10:43:06.142Z,18.17
2022-10-13T10:45:41.123Z,14.27
2022-10-13T10:48:20.752Z,14.63
2022-10-13T10:50:52.593Z,12.98
2022-10-13T10:53:31.802Z,14.88
2022-10-13T10:56:06.991Z,14.15
2022-10-13T10:58:46.372Z,14.52
2022-10-13T11:01:31.100Z,18.08
2022-10-13T11:04:16.098Z,15.40
2022-10-13T11:06:45.890Z,15.35
2022-10-13T11:09:15.944Z,14.13
2022-10-13T11:11:45.963Z,14.75
2022-10-13T11:14:31.965Z,10.43
2022-10-13T11:17:11.930Z,13.05
2022-10-13T11:19:42.945Z,12.30
2022-10-13T11:22:18.375Z,9.00
2022-10-13T11:25:00.227Z,13.85
2022-10-13T11:27:45.796Z,15.15
2022-10-13T11:30:47.414Z,13.88
2022-10-13T11:33:36.847Z,12.90
2022-10-13T11:36:36.796Z,10.93
2022-10-13T11:42:12.775Z,11.00
2022-10-13T11:44:52.466Z,12.57
2022-10-13T11:47:53.913Z,13.77
2022-10-13T11:50:31.702Z,12.95
2022-10-13T11:53:18.949Z,10.50
2022-10-13T11:55:53.800Z,17.10
2022-10-13T11:58:26.114Z,13.68
2022-10-13T12:00:58.052Z,9.95
2022-10-13T12:03:33.478Z,10.18
2022-10-13T12:06:07.798Z,14.35
2022-10-13T12:11:10.623Z,12.90
2022-10-13T12:13:40.575Z,10.05
2022-10-13T12:16:10.668Z,12.48
2022-10-13T12:18:44.129Z,13.60
2022-10-13T12:21:17.446Z,12.00
2022-10-13T12:23:47.349Z,17.83
2022-10-13T12:26:19.573Z,9.55
2022-10-13T12:28:55.815Z,13.50
2022-10-13T12:31:28.328Z,11.98
2022-10-13T12:34:03.091Z,13.30
2022-10-13T12:36:34.673Z,9.50
2022-10-13T12:39:07.751Z,11.15
2022-10-13T12:41:38.985Z,11.55
2022-10-13T12:44:10.605Z,11.27
2022-10-13T12:46:41.870Z,11.10
2022-10-13T12:52:14.555Z,15.27
2022-10-13T12:54:51.365Z,11.30
2022-10-13T12:57:24.555Z,14.57
2022-10-13T12:59:57.095Z,14.00
2022-10-13T13:02:28.552Z,13.77
2022-10-13T13:05:01.439Z,9.50
2022-10-13T13:07:33.704Z,11.50
2022-10-13T13:10:20.046Z,15.23
2022-10-13T13:12:51.319Z,9.20
2022-10-13T13:15:32.846Z,7.80
2022-10-13T13:18:42.201Z,12.27
2022-10-13T13:21:17.134Z,13.13
2022-10-13T13:23:52.801Z,10.05
2022-10-13T13:26:25.644Z,11.05
2022-10-13T13:28:56.976Z,12.05
2022-10-13T13:31:28.786Z,15.20
2022-10-13T13:33:58.650Z,7.57
2022-10-13T13:36:33.497Z,11.30
2022-10-13T13:39:03.246Z,12.20
2022-10-13T13:41:33.009Z,14.95
2022-10-13T13:44:02.827Z,15.13
2022-10-13T13:46:32.660Z,12.05
2022-10-13T13:49:02.827Z,12.63
2022-10-13T13:51:35.163Z,8.73
2022-10-13T13:54:04.930Z,9.27
2022-10-13T13:56:34.783Z,12.95
2022-10-13T13:59:04.518Z,11.48
2022-10-13T14:01:34.296Z,9.77
2022-10-13T14:04:04.119Z,9.35
2022-10-13T14:06:37.980Z,8.73
2022-10-13T14:09:08.407Z,12.18
2022-10-13T14:11:38.163Z,14.02
2022-10-13T14:14:07.902Z,13.10
2022-10-13T14:16:38.271Z,11.57
2022-10-13T14:19:08.403Z,10.40
2022-10-13T14:21:40.790Z,12.32
2022-10-13T14:24:12.590Z,13.80
2022-10-13T14:26:42.357Z,12.02
2022-10-13T14:29:12.273Z,12.70
2022-10-13T14:31:42.089Z,14.95
2022-10-13T14:34:11.848Z,16.02
2022-10-13T14:36:44.335Z,10.52
2022-10-13T14:39:14.141Z,11.30
2022-10-13T14:41:43.904Z,11.82
2022-10-13T14:44:15.505Z,10.85
2022-10-13T14:46:45.278Z,12.05
2022-10-13T14:49:15.213Z,13.15
2022-10-13T14:51:47.576Z,14.00
2022-10-13T14:54:17.359Z,12.35
2022-10-13T14:56:47.346Z,17.02
2022-10-13T14:59:17.947Z,13.63
2022-10-13T15:01:48.527Z,12.43
2022-10-13T15:04:18.233Z,14.63
2022-10-13T15:06:50.563Z,12.77
2022-10-13T15:09:25.503Z,12.98
2022-10-13T15:12:03.352Z,15.25
2022-10-13T15:14:33.053Z,11.30
2022-10-13T15:17:03.207Z,15.05
2022-10-13T15:19:32.929Z,13.73
2022-10-13T15:22:05.284Z,12.38
2022-10-13T15:24:34.969Z,17.73
2022-10-13T15:27:04.712Z,16.60
2022-10-13T15:29:34.447Z,15.77
2022-10-13T15:32:11.343Z,12.85
2022-10-13T15:34:42.037Z,19.50
2022-10-13T15:37:14.757Z,17.17
2022-10-13T15:39:44.466Z,12.27
2022-10-13T15:42:14.594Z,14.23
2022-10-13T15:45:08.901Z,13.60
2022-10-13T15:47:35.899Z,20.40
2022-10-13T15:50:05.825Z,15.20
2022-10-13T15:52:40.679Z,12.65
2022-10-13T15:55:11.511Z,13.98
2022-10-13T15:57:41.574Z,15.30
2022-10-13T16:00:14.240Z,14.52
2022-10-13T16:02:46.207Z,14.68
2022-10-13T16:05:16.124Z,9.77
2022-10-13T16:07:48.428Z,15.27
2022-10-13T16:10:18.373Z,12.45
2022-10-13T16:12:49.785Z,12.95
2022-10-13T16:15:20.227Z,18.10
2022-10-13T16:17:49.972Z,14.30
2022-10-13T16:20:19.908Z,16.17
2022-10-13T16:22:52.231Z,18.23
2022-10-13T16:25:22.034Z,26.42
2022-10-13T16:27:51.749Z,27.60
2022-10-13T16:30:21.468Z,22.58
2022-10-13T16:32:51.204Z,23.83
2022-10-13T16:35:20.959Z,19.65
2022-10-13T16:37:53.379Z,21.42
2022-10-13T16:40:23.178Z,22.48
2022-10-13T16:42:52.890Z,32.50
2022-10-13T16:45:41.151Z,30.30
2022-10-13T16:48:12.328Z,19.02
2022-10-13T16:50:42.046Z,26.73
2022-10-13T16:53:14.357Z,28.15
2022-10-13T16:55:44.162Z,20.50
2022-10-13T16:58:13.937Z,20.30
2022-10-13T17:00:43.864Z,18.15
2022-10-13T17:03:13.672Z,23.98
2022-10-13T17:05:43.414Z,28.27
2022-10-13T17:08:15.723Z,29.95
2022-10-13T17:10:45.425Z,28.65
2022-10-13T17:13:15.136Z,29.90
2022-10-13T17:15:52.041Z,25.88
2022-10-13T17:18:22.077Z,30.42
2022-10-13T17:20:56.089Z,28.63
2022-10-13T17:23:28.963Z,24.90
2022-10-13T17:26:03.414Z,28.00
2022-10-13T17:28:33.277Z,26.33
2022-10-13T17:31:05.512Z,31.90
2022-10-13T17:33:37.305Z,32.95
2022-10-13T17:36:10.166Z,31.67
2022-10-13T17:38:42.634Z,24.67
2022-10-13T17:41:13.636Z,27.85
2022-10-13T17:43:44.361Z,24.67
2022-10-13T17:46:35.573Z,23.60
2022-10-13T17:49:06.274Z,21.48
2022-10-13T17:51:36.195Z,26.08
2022-10-13T17:54:14.495Z,18.52
2022-10-13T17:56:45.743Z,19.30
2022-10-13T17:59:16.116Z,24.00
2022-10-13T18:01:46.662Z,23.15
2022-10-13T18:04:18.955Z,20.05
2022-10-13T18:06:48.852Z,16.48
2022-10-13T18:09:24.202Z,22.27
2022-10-13T18:11:56.546Z,17.83
2022-10-13T18:14:27.594Z,18.48
2022-10-13T18:16:57.364Z,19.55
2022-10-13T18:19:27.263Z,19.42
2022-10-13T18:21:56.992Z,21.17
2022-10-13T18:24:29.361Z,22.40
2022-10-13T18:26:59.140Z,17.92
2022-10-13T18:29:28.886Z,18.83
2022-10-13T18:31:59.012Z,22.60
2022-10-13T18:34:28.823Z,21.40
2022-10-13T18:36:58.552Z,24.83
2022-10-13T18:39:31.944Z,23.98
2022-10-13T18:42:01.681Z,20.73
2022-10-13T18:44:31.526Z,22.85
2022-10-13T18:47:01.256Z,23.00
2022-10-13T18:49:33.362Z,19.95
2022-10-13T18:52:04.035Z,22.42
2022-10-13T18:54:36.435Z,20.92
2022-10-13T18:57:06.200Z,24.05
2022-10-13T18:59:38.703Z,24.63
2022-10-13T19:02:08.518Z,23.13
2022-10-13T19:04:38.522Z,24.23
2022-10-13T19:07:08.360Z,24.45
2022-10-13T19:09:40.679Z,21.73
2022-10-13T19:12:10.833Z,19.85
2022-10-13T19:14:40.549Z,23.75
2022-10-13T19:17:10.260Z,22.88
2022-10-13T19:19:41.481Z,22.83
2022-10-13T19:22:11.377Z,25.08
2022-10-13T19:24:43.774Z,21.38
2022-10-13T19:27:13.501Z,24.45
2022-10-13T19:29:43.268Z,24.65
2022-10-13T19:32:12.994Z,22.55
2022-10-13T19:34:42.744Z,23.45
2022-10-13T19:37:12.514Z,21.73
2022-10-13T19:39:44.946Z,28.65
2022-10-13T19:42:14.707Z,22.52
2022-10-13T19:44:44.452Z,23.10
2022-10-13T19:47:14.146Z,22.95
2022-10-13T19:49:43.882Z,21.98
2022-10-13T19:52:13.597Z,24.02
2022-10-13T19:54:45.903Z,24.40
2022-10-13T19:57:15.686Z,25.83
2022-10-13T19:59:47.771Z,27.95
2022-10-13T20:02:18.475Z,29.75
2022-10-13T20:04:48.656Z,26.35
2022-10-13T20:07:18.611Z,29.88
2022-10-13T20:09:51.116Z,24.50
2022-10-13T20:12:20.823Z,29.42
2022-10-13T20:14:50.548Z,25.92
2022-10-13T20:17:20.436Z,30.10
2022-10-13T20:19:50.327Z,35.65
2022-10-13T20:22:20.154Z,33.97
2022-10-13T20:24:52.543Z,29.85
2022-10-13T20:27:22.869Z,30.92
2022-10-13T20:29:52.850Z,34.33
2022-10-13T20:32:22.711Z,33.15
2022-10-13T20:34:52.475Z,34.63
2022-10-13T20:37:22.660Z,34.70
2022-10-13T20:39:57.168Z,33.15
2022-10-13T20:42:26.954Z,31.88
2022-10-13T20:44:56.697Z,33.58
2022-10-13T20:47:26.463Z,31.52
2022-10-13T20:49:56.250Z,47.58
2022-10-13T20:52:26.038Z,34.20
2022-10-13T20:54:58.420Z,31.27
2022-10-13T20:57:28.117Z,28.88
2022-10-13T20:59:57.825Z,29.50
2022-10-13T21:02:27.735Z,28.45
2022-10-13T21:04:57.460Z,34.13
2022-10-13T21:07:28.440Z,31.77
2022-10-13T21:10:00.776Z,26.80
2022-10-13T21:12:30.484Z,35.35
2022-10-13T21:15:00.238Z,32.47
2022-10-13T21:17:31.963Z,31.50
2022-10-13T21:20:01.738Z,28.85
2022-10-13T21:22:31.460Z,37.10
2022-10-13T21:25:03.758Z,27.23
2022-10-13T21:27:33.484Z,25.85
2022-10-13T21:30:03.295Z,28.40
2022-10-13T21:32:33.289Z,27.25
2022-10-13T21:35:02.995Z,28.17
2022-10-13T21:37:35.947Z,26.17
2022-10-13T21:40:09.738Z,28.60
2022-10-13T21:42:39.781Z,30.33
2022-10-13T21:45:11.114Z,27.10
2022-10-13T21:47:40.925Z,23.75
2022-10-13T21:50:11.361Z,26.83
2022-10-13T21:52:41.188Z,23.88
2022-10-13T21:55:14.186Z,27.90
2022-10-13T21:57:43.908Z,26.38
2022-10-13T22:00:15.354Z,23.60
2022-10-13T22:02:45.177Z,23.08
2022-10-13T22:05:14.944Z,22.60
2022-10-13T22:07:44.719Z,22.48
2022-10-13T22:10:17.063Z,23.77
2022-10-13T22:12:46.979Z,20.30
2022-10-13T22:15:16.808Z,19.92
2022-10-13T22:17:46.516Z,19.00
2022-10-13T22:20:16.264Z,19.77
2022-10-13T22:22:46.032Z,23.77
2022-10-13T22:25:18.533Z,16.70
2022-10-13T22:27:48.506Z,23.15
2022-10-13T22:30:18.463Z,22.08
2022-10-13T22:32:48.362Z,19.35
2022-10-13T22:35:18.354Z,21.08
2022-10-13T22:37:48.104Z,26.88
2022-10-13T22:40:20.487Z,20.42
2022-10-13T22:42:50.236Z,18.80
2022-10-13T22:45:20.140Z,16.88
2022-10-13T22:47:51.586Z,22.13
2022-10-13T22:50:21.737Z,18.13
2022-10-13T22:52:51.509Z,19.33
2022-10-13T22:55:23.851Z,17.13
2022-10-13T22:57:53.558Z,15.77
2022-10-13T23:00:23.477Z,14.35
2022-10-13T23:02:53.196Z,17.75
2022-10-13T23:05:23.135Z,19.45
2022-10-13T23:07:52.918Z,16.88
2022-10-13T23:10:25.381Z,16.17
2022-10-13T23:12:55.101Z,17.52
2022-10-13T23:15:24.808Z,15.77
2022-10-13T23:17:57.386Z,15.65
2022-10-13T23:20:27.124Z,16.60
2022-10-13T23:22:56.893Z,12.73
2022-10-13T23:25:29.180Z,17.20
2022-10-13T23:27:58.887Z,15.20
2022-10-13T23:30:28.706Z,15.48
2022-10-13T23:32:58.536Z,13.85
2022-10-13T23:35:28.327Z,15.90
2022-10-13T23:37:58.039Z,16.02
2022-10-13T23:40:30.429Z,17.00
2022-10-13T23:43:01.374Z,18.27
2022-10-13T23:45:31.089Z,14.30
2022-10-13T23:48:00.792Z,14.13
2022-10-13T23:50:30.535Z,15.65
2022-10-13T23:53:00.346Z,15.68
2022-10-13T23:55:32.777Z,16.40
2022-10-13T23:58:02.537Z,14.23
